createdAt,value
2019-01-05T00:02:30.473Z,1.20
2019-01-05T00:05:08.663Z,1.30
2019-01-05T00:07:53.915Z,1.20
2019-01-05T00:10:26.834Z,1.20
2019-01-05T00:12:59.989Z,1.20
2019-01-05T00:15:46.584Z,1.20
2019-01-05T00:18:33.167Z,1.20
2019-01-05T00:21:19.691Z,1.10
2019-01-05T00:23:49.782Z,1.10
2019-01-05T00:26:19.829Z,1.10
2019-01-05T00:28:49.848Z,1.00
2019-01-05T00:31:36.197Z,1.10
2019-01-05T00:34:25.106Z,1.10
2019-01-05T00:36:58.648Z,1.00
2019-01-05T00:39:31.575Z,1.00
2019-01-05T00:42:04.311Z,1.00
2019-01-05T00:44:37.188Z,1.00
2019-01-05T00:47:16.320Z,1.10
2019-01-05T00:49:55.214Z,1.20
2019-01-05T00:52:28.165Z,1.20
2019-01-05T00:55:14.616Z,1.20
2019-01-05T00:57:59.714Z,1.20
2019-01-05T01:00:29.792Z,1.20
2019-01-05T01:02:59.747Z,1.20
2019-01-05T01:05:29.890Z,1.20
2019-01-05T01:07:59.895Z,1.20
2019-01-05T01:10:46.521Z,1.10
2019-01-05T01:13:35.450Z,1.10
2019-01-05T01:16:14.345Z,1.20
2019-01-05T01:19:01.057Z,1.20
2019-01-05T01:21:39.881Z,1.20
2019-01-05T01:24:09.916Z,1.20
2019-01-05T01:26:39.923Z,1.30
2019-01-05T01:29:19.193Z,1.20
2019-01-05T01:32:07.577Z,1.20
2019-01-05T01:34:46.873Z,1.20
2019-01-05T01:37:19.849Z,1.30
2019-01-05T01:40:06.331Z,1.20
2019-01-05T01:42:45.088Z,1.20
2019-01-05T01:45:30.229Z,1.10
2019-01-05T01:48:00.539Z,1.20
2019-01-05T01:50:47.477Z,1.10
2019-01-05T01:53:34.315Z,1.20
2019-01-05T01:56:13.468Z,1.20
2019-01-05T01:58:43.531Z,1.20
2019-01-05T02:01:13.597Z,1.30
2019-01-05T02:03:44.735Z,1.20
2019-01-05T02:06:16.138Z,1.20
2019-01-05T02:08:56.349Z,1.20
2019-01-05T02:11:32.900Z,1.30
2019-01-05T02:14:19.392Z,1.20
2019-01-05T02:17:11.796Z,1.20
2019-01-05T02:19:50.685Z,1.20
2019-01-05T02:22:33.013Z,1.20
2019-01-05T02:25:14.951Z,1.20
2019-01-05T02:28:07.512Z,1.10
2019-01-05T02:31:01.191Z,1.10
2019-01-05T02:33:58.016Z,1.10
2019-01-05T02:36:40.458Z,1.10
2019-01-05T02:39:37.676Z,1.10
2019-01-05T02:42:51.518Z,1.10
2019-01-05T02:45:47.305Z,1.00
2019-01-05T02:48:51.613Z,1.00
2019-01-05T02:51:47.310Z,1.00
2019-01-05T02:54:29.603Z,1.10
2019-01-05T02:57:38.277Z,1.00
2019-01-05T03:00:43.604Z,1.00
2019-01-05T03:03:34.987Z,1.00
2019-01-05T03:06:43.899Z,1.00
2019-01-05T03:09:17.185Z,1.10
2019-01-05T03:12:11.997Z,1.10
2019-01-05T03:15:11.644Z,1.10
2019-01-05T03:18:03.081Z,1.10
2019-01-05T03:20:56.017Z,1.10
2019-01-05T03:23:46.891Z,1.10
2019-01-05T03:26:46.496Z,1.10
2019-01-05T03:29:39.945Z,1.10
2019-01-05T03:33:00.771Z,1.20
2019-01-05T03:36:02.140Z,1.30
2019-01-05T03:39:16.366Z,1.30
2019-01-05T03:42:11.768Z,1.10
2019-01-05T03:45:13.848Z,1.10
2019-01-05T03:47:58.975Z,1.10
2019-01-05T03:51:09.932Z,1.20
2019-01-05T03:54:12.728Z,1.20
2019-01-05T03:57:19.963Z,1.20
2019-01-05T04:00:27.286Z,1.10
2019-01-05T04:03:09.503Z,1.20
2019-01-05T04:06:05.423Z,1.10
2019-01-05T04:09:13.745Z,1.10
2019-01-05T04:12:11.427Z,1.10
2019-01-05T04:15:13.482Z,1.10
2019-01-05T04:18:03.249Z,1.20
2019-01-05T04:20:51.229Z,1.10
2019-01-05T04:24:06.071Z,1.10
2019-01-05T04:27:09.152Z,1.10
2019-01-05T04:29:45.009Z,1.10
2019-01-05T04:32:36.951Z,1.10
2019-01-05T04:35:24.463Z,1.10
2019-01-05T04:38:21.115Z,1.20
2019-01-05T04:41:44.594Z,1.10
2019-01-05T04:44:58.836Z,1.20
2019-01-05T04:47:49.687Z,1.20
2019-01-05T04:50:31.528Z,1.20
2019-01-05T04:53:37.472Z,1.20
2019-01-05T05:00:11.886Z,1.20
2019-01-05T05:03:34.021Z,1.30
2019-01-05T05:06:32.482Z,1.30
2019-01-05T05:09:33.905Z,1.30
2019-01-05T05:12:38.827Z,1.20
2019-01-05T05:15:38.979Z,1.20
2019-01-05T05:18:23.963Z,1.20
2019-01-05T05:21:28.771Z,1.20
2019-01-05T05:24:37.640Z,1.10
2019-01-05T05:27:33.724Z,1.10
2019-01-05T05:30:15.540Z,1.10
2019-01-05T05:33:04.012Z,1.00
2019-01-05T05:35:56.411Z,1.00
2019-01-05T05:39:15.255Z,1.00
2019-01-05T05:42:18.983Z,0.90
2019-01-05T05:45:17.962Z,0.90
2019-01-05T05:48:27.946Z,0.90
2019-01-05T05:51:29.475Z,1.00
2019-01-05T05:54:17.912Z,0.90
2019-01-05T05:57:33.388Z,0.80
2019-01-05T06:00:37.004Z,0.80
2019-01-05T06:03:55.361Z,0.80
2019-01-05T06:07:01.517Z,0.70
2019-01-05T06:09:37.227Z,0.70
2019-01-05T06:12:52.471Z,0.70
2019-01-05T06:15:49.640Z,0.80
2019-01-05T06:18:28.712Z,0.80
2019-01-05T06:21:19.122Z,0.80
2019-01-05T06:24:18.240Z,0.80
2019-01-05T06:27:06.523Z,0.80
2019-01-05T06:30:05.348Z,0.80
2019-01-05T06:33:12.128Z,0.80
2019-01-05T06:36:10.848Z,0.80
2019-01-05T06:39:15.631Z,0.80
2019-01-05T06:42:07.468Z,0.80
2019-01-05T06:45:07.443Z,0.90
2019-01-05T06:48:29.087Z,0.90
2019-01-05T06:51:40.350Z,0.80
2019-01-05T06:54:22.574Z,0.90
2019-01-05T06:57:05.050Z,0.90
2019-01-05T06:59:58.988Z,0.90
2019-01-05T07:03:11.331Z,0.80
2019-01-05T07:05:56.155Z,0.90
2019-01-05T07:09:12.038Z,0.90
2019-01-05T07:12:06.573Z,0.90
2019-01-05T07:15:00.341Z,0.80
2019-01-05T07:18:14.428Z,0.80
2019-01-05T07:20:59.759Z,0.80
2019-01-05T07:24:08.759Z,0.70
2019-01-05T07:27:19.316Z,0.70
2019-01-05T07:30:31.927Z,0.70
2019-01-05T07:33:42.993Z,0.70
2019-01-05T07:36:19.296Z,0.70
2019-01-05T07:39:23.314Z,0.70
2019-01-05T07:42:08.720Z,0.70
2019-01-05T07:45:01.129Z,0.80
2019-01-05T07:48:21.534Z,0.80
2019-01-05T07:51:29.335Z,0.80
2019-01-05T07:54:17.361Z,0.80
2019-01-05T07:57:19.197Z,0.80
2019-01-05T08:00:30.489Z,0.80
2019-01-05T08:03:24.892Z,0.70
2019-01-05T08:06:17.337Z,0.70
2019-01-05T08:09:03.376Z,0.80
2019-01-05T08:12:11.565Z,0.70
2019-01-05T08:15:25.216Z,0.80
2019-01-05T08:18:23.083Z,0.80
2019-01-05T08:21:20.661Z,0.90
2019-01-05T08:24:16.467Z,0.90
2019-01-05T08:27:24.107Z,0.90
2019-01-05T08:30:19.970Z,0.90
2019-01-05T08:32:53.556Z,0.90
2019-01-05T08:35:35.842Z,0.90
2019-01-05T08:38:42.293Z,0.90
2019-01-05T08:41:35.201Z,1.00
2019-01-05T08:44:43.417Z,1.00
2019-01-05T08:47:49.052Z,1.00
2019-01-05T08:50:48.384Z,1.00
2019-01-05T08:53:56.181Z,1.00
2019-01-05T08:56:47.424Z,1.10
2019-01-05T08:59:43.214Z,1.00
2019-01-05T09:02:49.376Z,1.00
2019-01-05T09:06:07.895Z,1.00
2019-01-05T09:09:28.195Z,1.00
2019-01-05T09:12:29.497Z,0.90
2019-01-05T09:15:50.990Z,0.90
2019-01-05T09:19:00.159Z,0.90
2019-01-05T09:21:52.956Z,0.90
2019-01-05T09:25:00.760Z,0.90
2019-01-05T09:27:56.111Z,0.90
2019-01-05T09:31:15.014Z,0.90
2019-01-05T09:34:15.418Z,0.90
2019-01-05T09:36:57.500Z,0.90
2019-01-05T09:40:05.761Z,0.90
2019-01-05T09:43:02.891Z,1.00
2019-01-05T09:46:00.220Z,1.00
2019-01-05T09:49:00.875Z,1.00
2019-01-05T09:52:05.555Z,1.00
2019-01-05T09:55:04.343Z,1.00
2019-01-05T09:58:09.613Z,1.00
2019-01-05T10:01:17.001Z,1.10
2019-01-05T10:04:35.743Z,1.10
2019-01-05T10:07:22.291Z,1.10
2019-01-05T10:10:21.088Z,1.10
2019-01-05T10:13:39.925Z,1.10
2019-01-05T10:16:43.949Z,1.10
2019-01-05T10:23:13.559Z,1.10
2019-01-05T10:26:01.770Z,1.10
2019-01-05T10:28:53.070Z,1.10
2019-01-05T10:31:53.405Z,1.00
2019-01-05T10:34:47.702Z,1.10
2019-01-05T10:37:39.120Z,1.00
2019-01-05T10:40:24.352Z,1.00
2019-01-05T10:43:09.636Z,1.10
2019-01-05T10:45:48.929Z,1.00
2019-01-05T10:49:11.081Z,1.10
2019-01-05T10:52:09.929Z,1.10
2019-01-05T10:55:22.861Z,1.10
2019-01-05T10:57:56.170Z,1.10
2019-01-05T11:01:17.932Z,1.10
2019-01-05T11:04:25.240Z,1.00
2019-01-05T11:07:47.013Z,1.00
2019-01-05T11:10:54.102Z,1.00
2019-01-05T11:14:19.602Z,1.00
2019-01-05T11:17:10.639Z,1.00
2019-01-05T11:19:52.731Z,1.10
2019-01-05T11:22:48.369Z,1.10
2019-01-05T11:26:02.497Z,1.10
2019-01-05T11:28:58.217Z,1.10
2019-01-05T11:31:46.325Z,1.10
2019-01-05T11:34:51.766Z,1.20
2019-01-05T11:38:01.636Z,1.10
2019-01-05T11:40:40.739Z,1.10
2019-01-05T11:43:25.832Z,1.10
2019-01-05T11:46:11.184Z,1.10
2019-01-05T11:49:49.111Z,1.20
2019-01-05T11:52:28.321Z,1.20
2019-01-05T11:55:51.394Z,1.20
2019-01-05T11:59:09.950Z,1.20
2019-01-05T12:02:33.015Z,1.20
2019-01-05T12:05:35.354Z,1.20
2019-01-05T12:08:49.493Z,1.20
2019-01-05T12:11:39.378Z,1.20
2019-01-05T12:14:36.208Z,1.30
2019-01-05T12:17:42.421Z,1.30
2019-01-05T12:20:49.048Z,1.30
2019-01-05T12:24:04.350Z,1.30
2019-01-05T12:27:28.512Z,1.20
2019-01-05T12:30:42.403Z,1.30
2019-01-05T12:33:52.733Z,1.30
2019-01-05T12:36:59.764Z,1.40
2019-01-05T12:39:53.899Z,1.40
2019-01-05T12:42:38.868Z,1.50
2019-01-05T12:45:46.185Z,1.50
2019-01-05T12:48:57.855Z,1.60
2019-01-05T12:51:56.841Z,1.60
2019-01-05T12:54:52.593Z,1.60
2019-01-05T12:57:54.635Z,1.50
2019-01-05T13:00:54.556Z,1.50
2019-01-05T13:03:42.015Z,1.60
2019-01-05T13:06:44.352Z,1.50
2019-01-05T13:09:51.125Z,1.60
2019-01-05T13:12:47.175Z,1.50
2019-01-05T13:15:58.239Z,1.50
2019-01-05T13:19:09.485Z,1.50
2019-01-05T13:22:25.926Z,1.50
2019-01-05T13:25:11.150Z,1.60
2019-01-05T13:28:19.212Z,1.60
2019-01-05T13:31:31.620Z,1.60
2019-01-05T13:34:56.608Z,1.50
2019-01-05T13:37:47.948Z,1.60
2019-01-05T13:41:08.377Z,1.60
2019-01-05T13:44:05.231Z,1.60
2019-01-05T13:46:50.846Z,1.70
2019-01-05T13:49:36.106Z,1.60
2019-01-05T13:52:35.004Z,1.70
2019-01-05T13:55:24.557Z,1.60
2019-01-05T13:57:54.606Z,1.60
2019-01-05T14:00:30.577Z,1.70
2019-01-05T14:03:09.551Z,1.70
2019-01-05T14:05:51.647Z,1.70
2019-01-05T14:08:36.695Z,1.70
2019-01-05T14:11:18.381Z,1.70
2019-01-05T14:14:05.303Z,1.60
2019-01-05T14:16:50.700Z,1.60
2019-01-05T14:19:35.800Z,1.60
2019-01-05T14:22:17.900Z,1.60
2019-01-05T14:24:47.972Z,1.60
2019-01-05T14:27:34.584Z,1.60
2019-01-05T14:30:09.256Z,1.60
2019-01-05T14:32:39.261Z,1.70
2019-01-05T14:35:12.228Z,1.70
2019-01-05T14:37:42.251Z,1.70
2019-01-05T14:40:14.992Z,1.60
2019-01-05T14:42:45.021Z,1.70
2019-01-05T14:45:31.333Z,1.70
2019-01-05T14:48:19.108Z,1.80
2019-01-05T14:51:05.742Z,1.70
2019-01-05T14:53:52.425Z,1.70
2019-01-05T14:56:28.115Z,1.70
2019-01-05T14:59:14.552Z,1.70
2019-01-05T15:01:49.564Z,1.70
2019-01-05T15:04:19.598Z,1.70
2019-01-05T15:07:02.238Z,1.60
2019-01-05T15:09:41.088Z,1.70
2019-01-05T15:12:20.220Z,1.70
2019-01-05T15:14:50.241Z,1.70
2019-01-05T15:17:38.520Z,1.70
2019-01-05T15:20:25.039Z,1.70
2019-01-05T15:22:57.795Z,1.70
2019-01-05T15:25:30.765Z,1.80
2019-01-05T15:28:17.292Z,1.80
2019-01-05T15:31:03.866Z,1.80
2019-01-05T15:33:36.403Z,1.80
2019-01-05T15:36:12.220Z,1.70
2019-01-05T15:38:51.193Z,1.70
2019-01-05T15:41:21.579Z,1.80
2019-01-05T15:43:57.616Z,1.80
2019-01-05T15:46:30.346Z,1.80
2019-01-05T15:49:12.488Z,1.80
2019-01-05T15:51:59.132Z,1.80
2019-01-05T15:54:29.134Z,1.80
2019-01-05T15:57:04.688Z,1.80
2019-01-05T15:59:37.384Z,1.80
2019-01-05T16:02:19.566Z,1.80
2019-01-05T16:05:06.401Z,1.80
2019-01-05T16:07:36.432Z,1.80
2019-01-05T16:10:08.692Z,1.80
2019-01-05T16:12:43.599Z,1.90
2019-01-05T16:15:28.525Z,1.90
2019-01-05T16:18:14.861Z,1.90
2019-01-05T16:20:57.137Z,2.00
2019-01-05T16:23:27.162Z,2.00
2019-01-05T16:25:59.917Z,2.00
2019-01-05T16:28:48.360Z,2.00
2019-01-05T16:31:30.414Z,2.00
2019-01-05T16:34:12.530Z,1.90
2019-01-05T16:36:58.805Z,2.00
2019-01-05T16:39:38.245Z,2.00
2019-01-05T16:42:18.388Z,2.00
2019-01-05T16:44:48.415Z,2.00
2019-01-05T16:47:22.421Z,2.00
2019-01-05T16:49:53.969Z,2.00
2019-01-05T16:52:23.994Z,2.00
2019-01-05T16:54:56.447Z,2.10
2019-01-05T16:57:45.164Z,2.10
2019-01-05T17:00:33.375Z,2.10
2019-01-05T17:03:06.639Z,2.10
2019-01-05T17:05:36.673Z,2.00
2019-01-05T17:08:22.973Z,2.10
2019-01-05T17:10:55.821Z,2.10
2019-01-05T17:13:28.255Z,2.10
2019-01-05T17:15:58.293Z,2.10
2019-01-05T17:18:44.797Z,2.10
2019-01-05T17:21:17.251Z,2.10
2019-01-05T17:23:50.237Z,2.10
2019-01-05T17:26:36.729Z,2.10
2019-01-05T17:29:09.866Z,2.10
2019-01-05T17:31:48.736Z,2.10
2019-01-05T17:34:35.452Z,2.10
2019-01-05T17:37:21.845Z,2.10
2019-01-05T17:40:07.149Z,2.10
2019-01-05T17:42:43.643Z,2.10
2019-01-05T17:45:16.522Z,2.10
2019-01-05T17:48:01.702Z,2.20
2019-01-05T17:50:31.704Z,2.20
2019-01-05T17:53:14.064Z,2.20
2019-01-05T17:55:44.086Z,2.20
2019-01-05T17:58:20.194Z,2.20
2019-01-05T18:01:09.303Z,2.20
2019-01-05T18:03:48.311Z,2.20
2019-01-05T18:06:27.260Z,2.20
2019-01-05T18:09:00.399Z,2.30
2019-01-05T18:11:46.579Z,2.40
2019-01-05T18:14:19.907Z,2.40
2019-01-05T18:17:01.851Z,2.40
2019-01-05T18:19:34.580Z,2.30
2019-01-05T18:22:13.716Z,2.30
2019-01-05T18:25:00.199Z,2.30
2019-01-05T18:27:30.454Z,2.30
2019-01-05T18:30:09.315Z,2.20
2019-01-05T18:32:39.347Z,2.20
2019-01-05T18:35:24.239Z,2.20
2019-01-05T18:37:57.358Z,2.20
2019-01-05T18:40:36.706Z,2.20
2019-01-05T18:43:23.352Z,2.10
2019-01-05T18:46:10.065Z,2.10
2019-01-05T18:48:43.099Z,2.10
2019-01-05T18:51:13.111Z,2.10
2019-01-05T18:53:51.918Z,2.20
2019-01-05T18:56:24.703Z,2.20
2019-01-05T18:58:54.988Z,2.20
2019-01-05T19:01:25.050Z,2.20
2019-01-05T19:04:11.436Z,2.20
2019-01-05T19:07:06.374Z,2.10
2019-01-05T19:09:39.251Z,2.10
2019-01-05T19:12:24.224Z,2.20
2019-01-05T19:14:56.822Z,2.30
2019-01-05T19:17:26.849Z,2.20
2019-01-05T19:19:59.651Z,2.20
2019-01-05T19:22:32.494Z,2.20
2019-01-05T19:25:19.204Z,2.20
2019-01-05T19:28:06.357Z,2.10
2019-01-05T19:30:42.333Z,2.00
2019-01-05T19:33:15.014Z,2.10
2019-01-05T19:35:56.959Z,2.10
2019-01-05T19:38:30.892Z,2.10
2019-01-05T19:41:19.028Z,2.10
2019-01-05T19:44:05.396Z,2.10
2019-01-05T19:46:38.539Z,2.00
2019-01-05T19:49:08.578Z,2.00
2019-01-05T19:51:55.360Z,2.10
2019-01-05T19:54:37.628Z,2.10
2019-01-05T19:57:13.320Z,2.00
2019-01-05T19:59:49.311Z,2.00
2019-01-05T20:02:19.327Z,2.00
2019-01-05T20:04:52.296Z,2.00
2019-01-05T20:07:38.580Z,2.00
2019-01-05T20:10:16.049Z,2.10
2019-01-05T20:13:01.272Z,2.10
2019-01-05T20:15:34.304Z,2.20
2019-01-05T20:18:20.783Z,2.10
2019-01-05T20:21:07.077Z,2.20
2019-01-05T20:23:42.830Z,2.20
2019-01-05T20:26:12.869Z,2.10
2019-01-05T20:28:48.785Z,2.20
2019-01-05T20:31:24.663Z,2.20
2019-01-05T20:34:00.545Z,2.30
2019-01-05T20:36:46.750Z,2.20
2019-01-05T20:39:25.744Z,2.20
2019-01-05T20:42:14.985Z,2.20
2019-01-05T20:44:53.977Z,2.20
2019-01-05T20:47:41.675Z,2.30
2019-01-05T20:50:11.794Z,2.20
2019-01-05T20:52:41.819Z,2.20
2019-01-05T20:55:18.344Z,2.20
2019-01-05T20:58:04.573Z,2.30
2019-01-05T21:00:51.110Z,2.30
2019-01-05T21:03:21.140Z,2.30
2019-01-05T21:05:53.838Z,2.30
2019-01-05T21:08:30.047Z,2.30
2019-01-05T21:11:16.368Z,2.30
2019-01-05T21:13:48.818Z,2.20
2019-01-05T21:16:35.461Z,2.20
2019-01-05T21:19:05.460Z,2.20
2019-01-05T21:21:41.764Z,2.20
2019-01-05T21:24:11.909Z,2.20
2019-01-05T21:26:58.183Z,2.30
2019-01-05T21:29:44.675Z,2.30
2019-01-05T21:32:17.368Z,2.30
2019-01-05T21:35:03.855Z,2.30
2019-01-05T21:37:34.233Z,2.30
2019-01-05T21:40:20.411Z,2.20
2019-01-05T21:43:05.861Z,2.20
2019-01-05T21:45:48.607Z,2.20
2019-01-05T21:48:33.657Z,2.20
2019-01-05T21:51:20.448Z,2.20
2019-01-05T21:54:06.911Z,2.30
2019-01-05T21:56:53.475Z,2.30
2019-01-05T21:59:26.723Z,2.20
2019-01-05T22:02:14.457Z,2.30
2019-01-05T22:04:47.640Z,2.30
2019-01-05T22:07:33.917Z,2.20
2019-01-05T22:10:10.171Z,2.30
2019-01-05T22:12:56.666Z,2.30
2019-01-05T22:15:43.300Z,2.20
2019-01-05T22:18:25.427Z,2.30
2019-01-05T22:21:01.272Z,2.30
2019-01-05T22:23:31.320Z,2.20
2019-01-05T22:26:01.728Z,2.20
2019-01-05T22:28:31.691Z,2.20
2019-01-05T22:31:18.282Z,2.20
2019-01-05T22:33:48.283Z,2.20
2019-01-05T22:36:18.473Z,2.20
2019-01-05T22:38:54.551Z,2.20
2019-01-05T22:41:28.694Z,2.20
2019-01-05T22:43:58.664Z,2.20
2019-01-05T22:46:28.684Z,2.30
2019-01-05T22:49:14.875Z,2.30
2019-01-05T22:52:03.329Z,2.30
2019-01-05T22:54:33.335Z,2.30
2019-01-05T22:57:21.312Z,2.30
2019-01-05T23:00:10.215Z,2.30
2019-01-05T23:02:56.919Z,2.30
2019-01-05T23:05:26.923Z,2.30
2019-01-05T23:07:56.975Z,2.20
2019-01-05T23:10:39.346Z,2.20
2019-01-05T23:13:09.380Z,2.20
2019-01-05T23:15:39.394Z,2.20
2019-01-05T23:18:25.841Z,2.20
2019-01-05T23:21:12.394Z,2.20
2019-01-05T23:23:48.624Z,2.20
2019-01-05T23:26:19.239Z,2.30
2019-01-05T23:29:01.747Z,2.20
2019-01-05T23:31:49.531Z,2.20
2019-01-05T23:34:19.580Z,2.30
2019-01-05T23:36:52.752Z,2.20
2019-01-05T23:39:39.940Z,2.30
2019-01-05T23:42:25.055Z,2.40
2019-01-05T23:45:00.804Z,2.30
2019-01-05T23:47:30.812Z,2.40
2019-01-05T23:50:05.360Z,2.40
2019-01-05T23:52:38.327Z,2.40
2019-01-05T23:55:23.464Z,2.40
2019-01-05T23:58:08.235Z,2.40
